createdAt,value
2022-11-24T00:01:12.534Z,25.27
2022-11-24T00:03:39.656Z,24.60
2022-11-24T00:06:12.428Z,25.47
2022-11-24T00:08:41.136Z,26.48
2022-11-24T00:11:10.584Z,25.98
2022-11-24T00:13:40.822Z,25.42
2022-11-24T00:16:13.740Z,24.63
2022-11-24T00:18:41.936Z,25.35
2022-11-24T00:23:35.886Z,24.27
2022-11-24T00:26:13.530Z,24.58
2022-11-24T00:28:41.903Z,24.60
2022-11-24T00:31:27.401Z,24.77
2022-11-24T00:33:59.649Z,24.52
2022-11-24T00:36:29.367Z,23.73
2022-11-24T00:39:01.966Z,24.08
2022-11-24T00:41:29.552Z,23.65
2022-11-24T00:43:56.984Z,24.70
2022-11-24T00:46:26.315Z,24.65
2022-11-24T00:48:53.970Z,25.75
2022-11-24T00:51:23.215Z,24.33
2022-11-24T00:53:50.326Z,24.58
2022-11-24T00:56:17.205Z,23.13
2022-11-24T00:58:44.147Z,23.15
2022-11-24T01:01:14.548Z,23.00
2022-11-24T01:03:42.558Z,23.65
2022-11-24T01:06:18.358Z,23.80
2022-11-24T01:08:45.483Z,23.88
2022-11-24T01:11:27.358Z,24.13
2022-11-24T01:13:59.432Z,24.65
2022-11-24T01:16:29.997Z,23.25
2022-11-24T01:18:56.949Z,24.05
2022-11-24T01:21:25.301Z,22.65
2022-11-24T01:23:52.323Z,22.38
2022-11-24T01:26:21.915Z,22.33
2022-11-24T01:28:56.947Z,22.13
2022-11-24T01:31:25.191Z,23.23
2022-11-24T01:33:52.681Z,24.08
2022-11-24T01:36:20.252Z,24.35
2022-11-24T01:38:47.221Z,25.63
2022-11-24T01:41:25.718Z,23.02
2022-11-24T01:43:54.108Z,22.60
2022-11-24T01:46:32.280Z,22.90
2022-11-24T01:49:06.507Z,22.05
2022-11-24T01:51:37.152Z,24.05
2022-11-24T01:54:32.484Z,22.75
2022-11-24T01:57:07.914Z,22.20
2022-11-24T01:59:35.174Z,22.23
2022-11-24T02:02:02.386Z,21.83
2022-11-24T02:04:33.228Z,22.58
2022-11-24T02:07:02.528Z,24.98
2022-11-24T02:09:45.102Z,22.45
2022-11-24T02:12:12.060Z,23.00
2022-11-24T02:14:41.967Z,26.05
2022-11-24T02:17:08.842Z,22.23
2022-11-24T02:19:45.417Z,25.25
2022-11-24T02:22:21.443Z,22.90
2022-11-24T02:25:06.821Z,24.25
2022-11-24T02:27:33.751Z,22.10
2022-11-24T02:30:00.744Z,22.40
2022-11-24T02:32:28.322Z,24.02
2022-11-24T02:35:03.447Z,23.13
2022-11-24T02:37:30.415Z,23.25
2022-11-24T02:39:57.298Z,22.48
2022-11-24T02:42:25.718Z,21.77
2022-11-24T02:44:56.746Z,22.52
2022-11-24T02:47:23.621Z,23.80
2022-11-24T02:49:50.441Z,22.83
2022-11-24T02:52:17.378Z,23.63
2022-11-24T02:54:44.728Z,23.20
2022-11-24T02:57:11.832Z,22.77
2022-11-24T02:59:38.832Z,22.17
2022-11-24T03:02:05.713Z,22.83
2022-11-24T03:04:33.009Z,23.83
2022-11-24T03:07:00.077Z,22.88
2022-11-24T03:09:26.995Z,24.65
2022-11-24T03:11:53.777Z,25.58
2022-11-24T03:14:20.575Z,25.38
2022-11-24T03:16:47.439Z,22.55
2022-11-24T03:19:14.284Z,22.08
2022-11-24T03:21:41.125Z,23.75
2022-11-24T03:24:08.020Z,22.25
2022-11-24T03:26:35.466Z,23.58
2022-11-24T03:29:02.644Z,22.30
2022-11-24T03:31:29.461Z,22.95
2022-11-24T03:33:56.484Z,22.55
2022-11-24T03:36:23.473Z,20.67
2022-11-24T03:38:50.359Z,22.77
2022-11-24T03:41:17.320Z,21.63
2022-11-24T03:43:44.472Z,23.20
2022-11-24T03:46:12.448Z,22.27
2022-11-24T03:48:39.470Z,22.38
2022-11-24T03:51:06.714Z,22.45
2022-11-24T03:53:34.318Z,25.63
2022-11-24T03:56:02.191Z,30.77
2022-11-24T03:58:29.625Z,26.27
2022-11-24T04:00:57.161Z,23.58
2022-11-24T04:03:25.027Z,23.08
2022-11-24T04:05:51.975Z,24.45
2022-11-24T04:08:19.483Z,22.63
2022-11-24T04:10:53.436Z,22.48
2022-11-24T04:13:22.796Z,22.58
2022-11-24T04:15:49.680Z,22.00
2022-11-24T04:18:16.591Z,23.10
2022-11-24T04:20:43.840Z,22.30
2022-11-24T04:23:11.350Z,24.97
2022-11-24T04:25:38.998Z,24.15
2022-11-24T04:30:33.805Z,23.50
2022-11-24T04:33:00.603Z,24.35
2022-11-24T04:35:28.214Z,23.80
2022-11-24T04:37:55.094Z,24.83
2022-11-24T04:40:21.946Z,24.77
2022-11-24T04:42:56.327Z,25.27
2022-11-24T04:45:24.018Z,26.23
2022-11-24T04:47:51.107Z,27.85
2022-11-24T04:50:18.128Z,26.13
2022-11-24T04:52:44.984Z,25.65
2022-11-24T04:55:11.967Z,24.50
2022-11-24T04:57:39.217Z,25.75
2022-11-24T05:00:07.521Z,26.30
2022-11-24T05:02:34.435Z,26.40
2022-11-24T05:05:01.317Z,25.63
2022-11-24T05:07:28.240Z,26.58
2022-11-24T05:10:13.693Z,26.60
2022-11-24T05:12:40.458Z,25.40
2022-11-24T05:15:08.095Z,24.90
2022-11-24T05:17:37.421Z,25.80
2022-11-24T05:20:06.192Z,26.45
2022-11-24T05:22:32.992Z,26.13
2022-11-24T05:24:59.775Z,25.67
2022-11-24T05:27:26.517Z,25.88
2022-11-24T05:29:53.367Z,23.17
2022-11-24T05:32:20.200Z,23.95
2022-11-24T05:34:47.185Z,24.33
2022-11-24T05:37:14.101Z,24.17
2022-11-24T05:39:40.904Z,22.60
2022-11-24T05:42:26.880Z,23.10
2022-11-24T05:44:54.103Z,23.05
2022-11-24T05:47:21.400Z,21.63
2022-11-24T05:49:48.185Z,22.77
2022-11-24T05:52:15.640Z,21.67
2022-11-24T05:54:42.436Z,21.75
2022-11-24T05:57:09.415Z,21.20
2022-11-24T05:59:36.209Z,22.30
2022-11-24T06:02:03.415Z,23.05
2022-11-24T06:04:30.414Z,22.50
2022-11-24T06:06:57.195Z,21.77
2022-11-24T06:09:23.956Z,21.70
2022-11-24T06:11:50.703Z,22.30
2022-11-24T06:14:17.430Z,22.33
2022-11-24T06:16:44.267Z,24.17
2022-11-24T06:19:11.390Z,22.73
2022-11-24T06:21:38.171Z,22.33
2022-11-24T06:24:05.798Z,23.38
2022-11-24T06:26:32.787Z,23.88
2022-11-24T06:28:59.650Z,21.52
2022-11-24T06:31:27.814Z,21.70
2022-11-24T06:33:59.273Z,23.17
2022-11-24T06:36:27.104Z,21.58
2022-11-24T06:38:54.142Z,22.20
2022-11-24T06:41:21.066Z,22.38
2022-11-24T06:43:53.465Z,22.30
2022-11-24T06:46:20.823Z,22.85
2022-11-24T06:48:47.638Z,22.65
2022-11-24T06:51:14.479Z,23.55
2022-11-24T06:53:41.665Z,23.85
2022-11-24T06:56:16.196Z,29.50
2022-11-24T06:58:46.011Z,26.50
2022-11-24T07:01:24.166Z,23.42
2022-11-24T07:03:52.289Z,25.38
2022-11-24T07:08:47.089Z,17.98
2022-11-24T07:11:20.837Z,23.45
2022-11-24T07:13:48.443Z,23.25
2022-11-24T07:16:21.078Z,22.75
2022-11-24T07:18:49.277Z,23.25
2022-11-24T07:21:16.350Z,23.10
2022-11-24T07:23:43.446Z,22.95
2022-11-24T07:26:11.447Z,22.77
2022-11-24T07:28:38.693Z,23.30
2022-11-24T07:31:10.038Z,23.37
2022-11-24T07:33:37.193Z,23.85
2022-11-24T07:36:05.703Z,23.73
2022-11-24T07:38:32.789Z,24.35
2022-11-24T07:41:05.128Z,24.35
2022-11-24T07:43:33.391Z,25.63
2022-11-24T07:46:00.645Z,23.90
2022-11-24T07:48:27.889Z,23.80
2022-11-24T07:50:56.547Z,24.57
2022-11-24T07:53:23.548Z,23.60
2022-11-24T07:55:55.543Z,23.73
2022-11-24T07:58:22.792Z,24.10
2022-11-24T08:00:49.617Z,23.50
2022-11-24T08:03:16.466Z,23.27
2022-11-24T08:06:07.684Z,23.20
2022-11-24T08:08:33.286Z,24.63
2022-11-24T08:11:07.918Z,23.88
2022-11-24T08:13:36.136Z,23.00
2022-11-24T08:16:11.135Z,24.02
2022-11-24T08:18:38.863Z,23.52
2022-11-24T08:21:06.188Z,23.95
2022-11-24T08:23:33.435Z,22.45
2022-11-24T08:26:05.383Z,22.33
2022-11-24T08:28:33.015Z,22.38
2022-11-24T08:31:08.478Z,23.13
2022-11-24T08:33:35.465Z,21.05
2022-11-24T08:36:07.763Z,22.75
2022-11-24T08:38:34.882Z,22.17
2022-11-24T08:41:07.387Z,22.63
2022-11-24T08:43:34.286Z,21.92
2022-11-24T08:46:02.409Z,21.35
2022-11-24T08:50:57.630Z,21.35
2022-11-24T08:55:51.573Z,22.15
2022-11-24T08:58:18.398Z,20.98
2022-11-24T09:00:45.178Z,21.25
2022-11-24T09:03:12.302Z,21.63
2022-11-24T09:05:54.710Z,21.73
2022-11-24T09:08:21.464Z,21.58
2022-11-24T09:10:48.401Z,21.17
2022-11-24T09:13:15.134Z,20.58
2022-11-24T09:15:41.847Z,21.48
2022-11-24T09:18:08.618Z,20.17
2022-11-24T09:20:35.413Z,23.55
2022-11-24T09:23:02.402Z,20.58
2022-11-24T09:25:29.156Z,21.30
2022-11-24T09:27:56.394Z,20.85
2022-11-24T09:30:23.289Z,20.10
2022-11-24T09:32:50.156Z,20.75
2022-11-24T09:35:17.196Z,21.83
2022-11-24T09:37:45.609Z,22.10
2022-11-24T09:40:14.497Z,20.60
2022-11-24T09:43:22.620Z,21.58
2022-11-24T09:46:18.053Z,21.65
2022-11-24T09:48:49.245Z,20.70
2022-11-24T09:51:16.953Z,20.55
2022-11-24T09:53:53.409Z,22.98
2022-11-24T09:56:28.841Z,20.63
2022-11-24T09:59:10.718Z,19.63
2022-11-24T10:01:41.760Z,20.13
2022-11-24T10:04:28.742Z,20.33
2022-11-24T10:07:07.370Z,20.87
2022-11-24T10:10:06.444Z,19.55
2022-11-24T10:13:08.174Z,20.38
2022-11-24T10:15:53.728Z,21.88
2022-11-24T10:18:20.516Z,21.20
2022-11-24T10:20:52.447Z,19.80
2022-11-24T10:23:44.432Z,21.30
2022-11-24T10:26:39.792Z,19.50
2022-11-24T10:29:12.547Z,20.17
2022-11-24T10:31:45.673Z,20.10
2022-11-24T10:34:17.856Z,20.60
2022-11-24T10:37:12.722Z,19.38
2022-11-24T10:39:57.116Z,18.92
2022-11-24T10:42:33.369Z,19.00
2022-11-24T10:45:22.279Z,19.35
2022-11-24T10:47:50.428Z,19.48
2022-11-24T10:52:58.243Z,20.33
2022-11-24T10:55:25.158Z,19.38
2022-11-24T10:57:51.965Z,22.73
2022-11-24T11:00:18.745Z,21.48
2022-11-24T11:02:46.562Z,19.85
2022-11-24T11:05:31.712Z,21.45
2022-11-24T11:08:14.140Z,19.23
2022-11-24T11:10:44.810Z,19.77
2022-11-24T11:13:29.776Z,20.15
2022-11-24T11:15:58.719Z,20.42
2022-11-24T11:18:33.424Z,20.42
2022-11-24T11:21:02.408Z,21.15
2022-11-24T11:23:35.266Z,20.48
2022-11-24T11:26:32.332Z,20.88
2022-11-24T11:35:04.746Z,20.98
2022-11-24T11:37:33.394Z,21.40
2022-11-24T11:40:00.988Z,21.92
2022-11-24T11:43:03.790Z,20.75
2022-11-24T11:45:25.308Z,21.38
2022-11-24T11:47:57.164Z,21.30
2022-11-24T11:51:06.710Z,22.10
2022-11-24T11:54:02.083Z,21.50
2022-11-24T11:56:32.929Z,22.02
2022-11-24T11:59:17.448Z,21.15
2022-11-24T12:02:02.947Z,22.23
2022-11-24T12:04:49.031Z,22.08
2022-11-24T12:07:33.134Z,21.35
2022-11-24T12:10:23.541Z,21.90
2022-11-24T12:13:08.949Z,20.17
2022-11-24T12:15:39.074Z,21.00
2022-11-24T12:18:40.288Z,20.77
2022-11-24T12:21:25.929Z,20.75
2022-11-24T12:24:13.612Z,21.55
2022-11-24T12:27:22.481Z,21.13
2022-11-24T12:30:14.542Z,22.20
2022-11-24T12:33:11.979Z,23.05
2022-11-24T12:35:50.516Z,22.80
2022-11-24T12:38:38.396Z,22.33
2022-11-24T12:43:55.321Z,22.07
2022-11-24T12:46:56.535Z,22.02
2022-11-24T12:49:38.640Z,23.02
2022-11-24T12:52:28.065Z,23.85
2022-11-24T12:54:56.061Z,23.45
2022-11-24T12:57:33.866Z,24.23
2022-11-24T13:00:23.469Z,24.05
2022-11-24T13:03:12.358Z,22.88
2022-11-24T13:05:59.524Z,22.60
2022-11-24T13:08:28.255Z,22.83
2022-11-24T13:10:57.197Z,22.50
2022-11-24T13:13:48.036Z,21.92
2022-11-24T13:19:12.367Z,20.95
2022-11-24T13:21:42.918Z,20.17
2022-11-24T13:24:19.803Z,21.15
2022-11-24T13:27:16.440Z,21.02
2022-11-24T13:29:45.274Z,20.17
2022-11-24T13:32:12.010Z,20.30
2022-11-24T13:34:38.851Z,20.05
2022-11-24T13:37:31.408Z,21.67
2022-11-24T13:40:14.491Z,19.27
2022-11-24T13:43:10.725Z,20.15
2022-11-24T13:45:41.199Z,20.98
2022-11-24T13:48:20.522Z,20.13
2022-11-24T13:50:50.996Z,20.80
2022-11-24T13:53:45.164Z,20.10
2022-11-24T13:56:11.944Z,20.05
2022-11-24T13:58:56.095Z,20.70
2022-11-24T14:01:31.951Z,21.30
2022-11-24T14:04:29.809Z,20.88
2022-11-24T14:07:07.448Z,19.80
2022-11-24T14:09:44.816Z,19.77
2022-11-24T14:12:17.163Z,20.50
2022-11-24T14:14:46.305Z,19.35
2022-11-24T14:17:19.253Z,20.58
2022-11-24T14:19:48.807Z,19.30
2022-11-24T14:22:37.315Z,19.88
2022-11-24T14:25:04.731Z,18.90
2022-11-24T14:27:34.189Z,20.75
2022-11-24T14:30:21.338Z,19.63
2022-11-24T14:32:59.302Z,21.55
2022-11-24T14:35:34.488Z,20.98
2022-11-24T14:38:06.144Z,21.85
2022-11-24T14:40:51.216Z,23.58
2022-11-24T14:43:32.477Z,24.75
2022-11-24T14:46:01.145Z,27.10
2022-11-24T14:48:37.378Z,26.52
2022-11-24T14:51:08.615Z,27.08
2022-11-24T14:53:35.971Z,26.40
2022-11-24T14:56:21.163Z,26.83
2022-11-24T14:58:48.071Z,27.80
2022-11-24T15:01:26.998Z,27.73
2022-11-24T15:07:14.670Z,28.10
2022-11-24T15:09:47.551Z,28.70
2022-11-24T15:12:31.022Z,28.75
2022-11-24T15:15:02.353Z,28.10
2022-11-24T15:17:30.337Z,28.75
2022-11-24T15:20:02.480Z,29.25
2022-11-24T15:22:29.225Z,30.23
2022-11-24T15:24:56.029Z,29.27
2022-11-24T15:27:22.918Z,29.48
2022-11-24T15:29:50.145Z,29.27
2022-11-24T15:32:19.161Z,30.47
2022-11-24T15:34:45.920Z,27.88
2022-11-24T15:37:12.801Z,28.02
2022-11-24T15:39:39.573Z,28.00
2022-11-24T15:42:06.466Z,28.40
2022-11-24T15:44:34.857Z,29.70
2022-11-24T15:47:01.978Z,29.98
2022-11-24T15:49:28.832Z,29.38
2022-11-24T15:51:55.733Z,33.25
2022-11-24T15:54:24.588Z,36.47
2022-11-24T15:56:51.656Z,31.23
2022-11-24T15:59:20.747Z,31.17
2022-11-24T16:01:49.622Z,31.98
2022-11-24T16:04:16.641Z,29.35
2022-11-24T16:06:43.543Z,31.80
2022-11-24T16:09:15.959Z,31.42
2022-11-24T16:11:42.794Z,30.83
2022-11-24T16:14:09.733Z,31.02
2022-11-24T16:16:36.745Z,29.80
2022-11-24T16:19:03.926Z,30.20
2022-11-24T16:21:30.864Z,30.90
2022-11-24T16:23:57.837Z,33.47
2022-11-24T16:26:24.625Z,35.95
2022-11-24T16:28:51.481Z,33.65
2022-11-24T16:31:19.693Z,33.75
2022-11-24T16:33:47.071Z,32.28
2022-11-24T16:36:14.925Z,31.70
2022-11-24T16:38:41.920Z,29.83
2022-11-24T16:41:10.431Z,29.60
2022-11-24T16:43:37.989Z,29.90
2022-11-24T16:46:18.710Z,31.33
2022-11-24T16:48:51.768Z,28.98
2022-11-24T16:51:21.971Z,29.95
2022-11-24T16:53:56.343Z,28.58
2022-11-24T16:56:23.197Z,25.08
2022-11-24T16:58:49.980Z,25.17
2022-11-24T17:01:17.034Z,24.48
2022-11-24T17:03:44.166Z,25.13
2022-11-24T17:06:16.601Z,25.40
2022-11-24T17:08:45.233Z,23.67
2022-11-24T17:11:20.319Z,25.02
2022-11-24T17:13:49.239Z,26.00
2022-11-24T17:16:21.365Z,24.25
2022-11-24T17:18:48.963Z,25.60
2022-11-24T17:21:21.226Z,25.02
2022-11-24T17:23:52.474Z,25.77
2022-11-24T17:26:19.235Z,27.08
2022-11-24T17:28:46.189Z,27.38
2022-11-24T17:31:15.981Z,25.35
2022-11-24T17:33:42.825Z,26.65
2022-11-24T17:36:09.612Z,26.02
2022-11-24T17:38:36.924Z,31.38
2022-11-24T17:41:04.962Z,27.97
2022-11-24T17:46:01.873Z,25.92
2022-11-24T17:48:29.597Z,26.40
2022-11-24T17:51:16.213Z,26.70
2022-11-24T17:53:44.348Z,25.17
2022-11-24T17:58:43.936Z,26.45
2022-11-24T18:01:12.911Z,26.75
2022-11-24T18:03:40.550Z,26.83
2022-11-24T18:06:16.300Z,26.15
2022-11-24T18:08:45.218Z,26.15
2022-11-24T18:11:17.987Z,28.15
2022-11-24T18:14:01.614Z,26.58
2022-11-24T18:16:31.508Z,27.45
2022-11-24T18:19:09.799Z,26.38
2022-11-24T18:21:38.824Z,27.77
2022-11-24T18:24:06.375Z,27.92
2022-11-24T18:26:33.550Z,25.95
2022-11-24T18:29:00.342Z,27.67
2022-11-24T18:31:27.276Z,29.65
2022-11-24T18:33:54.099Z,27.63
2022-11-24T18:36:26.996Z,26.55
2022-11-24T18:39:06.855Z,27.55
2022-11-24T18:41:33.938Z,27.30
2022-11-24T18:44:07.709Z,25.83
2022-11-24T18:46:34.968Z,26.83
2022-11-24T18:49:01.755Z,26.45
2022-11-24T18:51:28.682Z,24.92
2022-11-24T18:53:57.847Z,24.05
2022-11-24T18:56:25.298Z,24.90
2022-11-24T18:58:56.116Z,25.27
2022-11-24T19:01:27.661Z,24.13
2022-11-24T19:03:57.127Z,26.02
2022-11-24T19:06:36.584Z,26.17
2022-11-24T19:09:08.948Z,27.42
2022-11-24T19:11:39.021Z,25.90
2022-11-24T19:14:07.796Z,26.48
2022-11-24T19:16:35.118Z,26.70
2022-11-24T19:19:02.897Z,26.02
2022-11-24T19:21:38.146Z,24.02
2022-11-24T19:24:07.645Z,24.17
2022-11-24T19:26:35.139Z,24.73
2022-11-24T19:29:03.048Z,23.88
2022-11-24T19:31:29.970Z,23.08
2022-11-24T19:33:58.578Z,22.30
2022-11-24T19:36:26.241Z,22.77
2022-11-24T19:38:56.013Z,23.77
2022-11-24T19:41:28.253Z,24.08
2022-11-24T19:43:55.104Z,26.13
2022-11-24T19:46:26.022Z,25.70
2022-11-24T19:48:57.261Z,40.35
2022-11-24T19:51:31.540Z,40.53
2022-11-24T19:53:59.345Z,29.27
2022-11-24T19:56:28.133Z,27.40
2022-11-24T19:58:56.107Z,33.38
2022-11-24T20:01:28.251Z,35.30
2022-11-24T20:04:11.473Z,35.65
2022-11-24T20:06:40.813Z,33.67
2022-11-24T20:09:13.456Z,34.58
2022-11-24T20:11:40.609Z,36.50
2022-11-24T20:14:09.986Z,36.67
2022-11-24T20:16:37.107Z,37.85
2022-11-24T20:19:07.181Z,36.83
2022-11-24T20:21:35.757Z,34.97
2022-11-24T20:24:07.511Z,38.55
2022-11-24T20:26:37.870Z,38.70
2022-11-24T20:29:05.843Z,35.30
2022-11-24T20:31:35.750Z,34.80
2022-11-24T20:34:04.380Z,35.97
2022-11-24T20:36:32.582Z,37.20
2022-11-24T20:39:01.346Z,35.85
2022-11-24T20:41:30.932Z,36.90
2022-11-24T20:44:00.735Z,37.20
2022-11-24T20:46:32.806Z,35.40
2022-11-24T20:49:00.118Z,35.05
2022-11-24T20:51:29.667Z,34.43
2022-11-24T20:53:59.510Z,32.75
2022-11-24T20:56:31.669Z,35.90
2022-11-24T20:59:00.102Z,36.17
2022-11-24T21:01:34.976Z,34.33
2022-11-24T21:04:03.278Z,37.78
2022-11-24T21:09:03.484Z,36.55
2022-11-24T21:11:32.292Z,35.83
2022-11-24T21:16:31.956Z,38.72
2022-11-24T21:19:03.677Z,37.08
2022-11-24T21:21:35.670Z,34.90
2022-11-24T21:24:05.232Z,39.55
2022-11-24T21:26:35.268Z,35.72
2022-11-24T21:29:02.191Z,35.47
2022-11-24T21:31:29.160Z,36.28
2022-11-24T21:33:56.250Z,34.50
2022-11-24T21:36:26.533Z,32.65
2022-11-24T21:38:58.335Z,32.20
2022-11-24T21:41:27.560Z,30.40
2022-11-24T21:43:58.202Z,31.60
2022-11-24T21:46:25.368Z,30.63
2022-11-24T21:48:52.399Z,29.77
2022-11-24T21:51:20.840Z,30.88
2022-11-24T21:53:48.168Z,30.13
2022-11-24T21:56:17.938Z,29.70
2022-11-24T21:58:53.087Z,29.17
2022-11-24T22:01:21.766Z,29.00
2022-11-24T22:03:48.814Z,29.85
2022-11-24T22:06:19.015Z,30.08
2022-11-24T22:08:46.671Z,30.70
2022-11-24T22:11:19.755Z,30.67
2022-11-24T22:13:47.040Z,32.50
2022-11-24T22:16:17.028Z,30.75
2022-11-24T22:18:45.192Z,29.60
2022-11-24T22:23:43.423Z,29.23
2022-11-24T22:26:15.740Z,29.98
2022-11-24T22:28:43.580Z,30.13
2022-11-24T22:31:13.653Z,30.30
2022-11-24T22:33:40.936Z,28.13
2022-11-24T22:36:07.998Z,28.00
2022-11-24T22:38:34.989Z,30.88
2022-11-24T22:41:03.818Z,28.95
2022-11-24T22:43:32.580Z,28.05
2022-11-24T22:46:06.652Z,27.13
2022-11-24T22:48:33.760Z,26.50
2022-11-24T22:51:05.261Z,26.48
2022-11-24T22:53:32.843Z,26.05
2022-11-24T22:56:10.557Z,25.95
2022-11-24T22:58:39.174Z,25.45
2022-11-24T23:01:07.546Z,26.80
2022-11-24T23:03:35.637Z,24.88
2022-11-24T23:08:31.901Z,24.63
2022-11-24T23:11:00.504Z,24.52
2022-11-24T23:13:27.398Z,24.23
2022-11-24T23:16:00.378Z,25.85
2022-11-24T23:18:27.434Z,25.50
2022-11-24T23:20:54.173Z,25.92
2022-11-24T23:23:21.001Z,25.90
2022-11-24T23:25:47.732Z,25.08
2022-11-24T23:28:14.506Z,24.85
2022-11-24T23:30:41.279Z,25.83
2022-11-24T23:33:08.032Z,24.38
2022-11-24T23:35:34.823Z,24.85
2022-11-24T23:38:08.765Z,25.30
2022-11-24T23:40:35.544Z,23.50
2022-11-24T23:43:02.254Z,24.85
2022-11-24T23:45:29.073Z,25.33
2022-11-24T23:47:55.939Z,24.25
2022-11-24T23:50:22.834Z,24.08
2022-11-24T23:52:49.579Z,24.25
2022-11-24T23:55:17.270Z,24.25
2022-11-24T23:57:44.102Z,24.08
